Aviation Digital Data Service (ADDS)

Output produced by METARs form (1815 UTC 19 April 2019)
found at http://www.aviationweather.gov/metar/data/
 
Forecast for: WIII (SOEKARNO-HATTA I, ID)
Text: TAF WIII 191700Z 1918/2024 16005KT 5000 HZ SCT020
Forecast period: 1800 UTC 19 April 2019 to 0100 UTC 20 April 2019
Forecast type: FROM: standard forecast or significant change
Winds: from the SSE (160 degrees) at 6 MPH (5 knots; 2.6 m/s)
Visibility: 3 miles (5 km)
Ceiling: at least 12,000 feet AGL
Clouds: scattered clouds at 2000 feet AGL
Weather: HZ  (haze)
Text: BECMG 2001/2003 04010KT 9000 NSW
Forecast period: 0100 UTC 20 April 2019 to 0000 UTC 21 April 2019
Forecast type: BECOMING: Conditions expected to become as follows by 0300 UTC 20 April 2019
Winds: from the NE (40 degrees) at 12 MPH (10 knots; 5.1 m/s)
Visibility: 6 miles (9 km)
Ceiling: at least 12,000 feet AGL
Clouds: scattered clouds at 2000 feet AGL
Weather: NSW  (no significant weather)